createdAt,value
2017-12-31T00:01:49.846Z,11.70
2017-12-31T00:04:17.024Z,11.50
2017-12-31T00:06:43.422Z,11.50
2017-12-31T00:12:28.250Z,11.50
2017-12-31T00:15:00.868Z,11.50
2017-12-31T00:17:28.258Z,11.40
2017-12-31T00:19:54.654Z,11.40
2017-12-31T00:22:22.464Z,11.30
2017-12-31T00:24:48.974Z,11.30
2017-12-31T00:27:16.630Z,11.20
2017-12-31T00:29:43.798Z,11.20
2017-12-31T00:32:10.249Z,11.20
2017-12-31T00:34:36.667Z,11.20
2017-12-31T00:37:03.835Z,11.20
2017-12-31T00:39:30.330Z,11.20
2017-12-31T00:41:57.447Z,11.30
2017-12-31T00:44:25.352Z,11.20
2017-12-31T00:46:51.755Z,11.20
2017-12-31T00:49:18.135Z,11.20
2017-12-31T00:51:44.710Z,11.20
2017-12-31T00:54:11.863Z,11.20
2017-12-31T00:56:39.018Z,11.40
2017-12-31T00:59:05.438Z,11.40
2017-12-31T01:01:31.883Z,11.30
2017-12-31T01:03:59.064Z,11.30
2017-12-31T01:06:25.477Z,11.30
2017-12-31T01:08:52.611Z,11.30
2017-12-31T01:11:19.135Z,11.30
2017-12-31T01:13:45.615Z,11.30
2017-12-31T01:16:12.001Z,11.30
2017-12-31T01:18:38.382Z,11.40
2017-12-31T01:21:04.863Z,11.40
2017-12-31T01:23:31.226Z,11.40
2017-12-31T01:25:57.638Z,11.40
2017-12-31T01:28:24.790Z,11.40
2017-12-31T01:30:51.930Z,11.30
2017-12-31T01:33:19.074Z,11.30
2017-12-31T01:35:46.256Z,11.40
2017-12-31T01:38:12.656Z,11.30
2017-12-31T01:40:39.557Z,11.20
2017-12-31T01:43:06.011Z,11.40
2017-12-31T01:45:32.429Z,11.20
2017-12-31T01:47:58.889Z,11.20
2017-12-31T01:50:26.047Z,11.10
2017-12-31T01:52:52.428Z,11.10
2017-12-31T01:55:19.389Z,11.20
2017-12-31T01:57:45.818Z,11.20
2017-12-31T02:00:12.202Z,11.10
2017-12-31T02:02:39.330Z,11.20
2017-12-31T02:05:05.750Z,11.20
2017-12-31T02:07:32.200Z,11.20
2017-12-31T02:09:59.356Z,11.00
2017-12-31T02:12:26.513Z,11.00
2017-12-31T02:14:52.999Z,11.00
2017-12-31T02:17:19.449Z,11.00
2017-12-31T02:19:45.884Z,11.00
2017-12-31T02:25:13.103Z,11.10
2017-12-31T02:27:39.529Z,11.20
2017-12-31T02:30:05.931Z,11.10
2017-12-31T02:32:33.083Z,11.10
2017-12-31T02:35:00.195Z,11.10
2017-12-31T02:37:27.312Z,11.10
2017-12-31T02:39:53.831Z,11.20
2017-12-31T02:42:20.511Z,11.30
2017-12-31T02:44:46.918Z,11.30
2017-12-31T02:47:13.382Z,11.30
2017-12-31T02:49:39.801Z,11.40
2017-12-31T02:52:06.326Z,11.40
2017-12-31T02:54:32.822Z,11.60
2017-12-31T02:56:59.230Z,11.70
2017-12-31T02:59:26.471Z,11.80
2017-12-31T03:01:53.644Z,11.80
2017-12-31T03:04:21.744Z,11.80
2017-12-31T03:06:48.133Z,11.80
2017-12-31T03:09:14.541Z,11.90
2017-12-31T03:11:40.929Z,11.90
2017-12-31T03:17:07.602Z,12.00
2017-12-31T03:19:34.027Z,12.20
2017-12-31T03:22:00.511Z,12.20
2017-12-31T03:24:28.077Z,12.20
2017-12-31T03:26:54.485Z,12.20
2017-12-31T03:29:21.032Z,12.10
2017-12-31T03:31:48.323Z,12.10
2017-12-31T03:34:15.535Z,12.10
2017-12-31T03:36:42.725Z,12.20
2017-12-31T03:39:10.037Z,12.30
2017-12-31T03:41:37.220Z,12.30
2017-12-31T03:44:04.410Z,12.40
2017-12-31T03:46:30.802Z,12.40
2017-12-31T03:48:57.218Z,12.50
2017-12-31T03:51:23.645Z,12.50
2017-12-31T03:53:50.879Z,12.60
2017-12-31T03:56:17.289Z,12.60
2017-12-31T03:58:43.677Z,12.50
2017-12-31T04:01:10.863Z,12.50
2017-12-31T04:03:37.290Z,12.50
2017-12-31T04:06:03.740Z,12.60
2017-12-31T04:08:30.152Z,12.60
2017-12-31T04:10:56.570Z,12.60
2017-12-31T04:13:23.024Z,12.70
2017-12-31T04:15:49.628Z,12.70
2017-12-31T04:18:16.082Z,12.70
2017-12-31T04:20:42.526Z,12.70
2017-12-31T04:23:08.983Z,12.70
2017-12-31T04:25:35.388Z,12.70
2017-12-31T04:28:01.841Z,12.90
2017-12-31T04:30:35.205Z,12.90
2017-12-31T04:33:01.603Z,12.80
2017-12-31T04:38:30.184Z,12.90
2017-12-31T04:41:03.704Z,12.80
2017-12-31T04:43:30.733Z,12.90
2017-12-31T04:45:57.863Z,12.90
2017-12-31T04:48:26.037Z,12.80
2017-12-31T04:50:52.425Z,12.80
2017-12-31T04:53:19.587Z,13.00
2017-12-31T04:55:46.330Z,13.00
2017-12-31T04:58:12.890Z,13.00
2017-12-31T05:00:40.043Z,13.00
2017-12-31T05:03:06.468Z,13.00
2017-12-31T05:05:33.184Z,13.00
2017-12-31T05:07:59.560Z,13.00
2017-12-31T05:10:26.705Z,13.00
2017-12-31T05:12:53.848Z,13.10
2017-12-31T05:15:20.992Z,13.20
2017-12-31T05:17:47.399Z,13.10
2017-12-31T05:20:13.798Z,13.10
2017-12-31T05:22:40.234Z,13.10
2017-12-31T05:25:06.657Z,13.10
2017-12-31T05:27:33.078Z,13.10
2017-12-31T05:29:59.498Z,13.20
2017-12-31T05:32:27.214Z,13.10
2017-12-31T05:34:53.652Z,13.10
2017-12-31T05:37:20.050Z,13.30
2017-12-31T05:39:49.334Z,13.20
2017-12-31T05:42:15.752Z,13.20
2017-12-31T05:44:42.125Z,13.20
2017-12-31T05:47:08.527Z,13.20
2017-12-31T05:49:36.376Z,13.20
2017-12-31T05:52:02.777Z,13.20
2017-12-31T05:54:29.963Z,13.20
2017-12-31T05:56:56.369Z,13.20
2017-12-31T05:59:24.232Z,13.20
2017-12-31T06:01:50.650Z,13.20
2017-12-31T06:04:17.055Z,13.20
2017-12-31T06:06:43.449Z,13.20
2017-12-31T06:09:11.404Z,13.20
2017-12-31T06:11:37.807Z,13.20
2017-12-31T06:14:04.191Z,13.20
2017-12-31T06:16:31.362Z,13.30
2017-12-31T06:18:58.555Z,13.40
2017-12-31T06:21:25.000Z,13.30
2017-12-31T06:23:52.157Z,13.40
2017-12-31T06:26:19.387Z,13.40
2017-12-31T06:28:45.999Z,13.30
2017-12-31T06:31:12.431Z,13.40
2017-12-31T06:33:38.991Z,13.30
2017-12-31T06:36:05.387Z,13.30
2017-12-31T06:38:31.816Z,13.30
2017-12-31T06:40:58.210Z,13.30
2017-12-31T06:43:25.322Z,13.30
2017-12-31T06:45:51.741Z,13.30
2017-12-31T06:48:18.157Z,13.40
2017-12-31T06:50:45.279Z,13.20
2017-12-31T06:53:11.717Z,13.10
2017-12-31T06:55:38.277Z,13.20
2017-12-31T06:58:04.795Z,13.20
2017-12-31T07:00:31.207Z,13.20
2017-12-31T07:02:57.566Z,13.20
2017-12-31T07:05:25.512Z,13.30
2017-12-31T07:07:52.670Z,13.30
2017-12-31T07:10:19.046Z,13.30
2017-12-31T07:12:45.470Z,13.30
2017-12-31T07:15:11.914Z,13.30
2017-12-31T07:17:38.326Z,13.20
2017-12-31T07:20:04.775Z,13.20
2017-12-31T07:22:32.926Z,13.10
2017-12-31T07:24:59.326Z,13.10
2017-12-31T07:27:25.726Z,13.20
2017-12-31T07:29:52.249Z,13.10
2017-12-31T07:32:18.780Z,13.10
2017-12-31T07:34:45.621Z,13.20
2017-12-31T07:37:12.565Z,13.10
2017-12-31T07:39:39.000Z,13.20
2017-12-31T07:42:05.415Z,13.20
2017-12-31T07:44:31.892Z,13.30
2017-12-31T07:46:59.290Z,13.20
2017-12-31T07:49:25.670Z,13.20
2017-12-31T07:51:52.876Z,13.20
2017-12-31T07:54:19.283Z,13.10
2017-12-31T07:56:45.687Z,13.30
2017-12-31T07:59:12.911Z,13.50
2017-12-31T08:01:40.104Z,13.50
2017-12-31T08:04:06.493Z,13.50
2017-12-31T08:06:33.027Z,13.40
2017-12-31T08:08:59.437Z,13.40
2017-12-31T08:11:25.830Z,13.40
2017-12-31T08:14:04.126Z,13.40
2017-12-31T08:16:31.428Z,13.30
2017-12-31T08:18:57.797Z,13.30
2017-12-31T08:21:24.851Z,13.30
2017-12-31T08:23:51.988Z,13.40
2017-12-31T08:26:18.355Z,13.40
2017-12-31T08:28:44.789Z,13.60
2017-12-31T08:31:11.172Z,13.80
2017-12-31T08:33:38.319Z,13.90
2017-12-31T08:36:05.490Z,14.00
2017-12-31T08:38:32.717Z,14.00
2017-12-31T08:41:00.024Z,13.90
2017-12-31T08:43:26.446Z,13.80
2017-12-31T08:45:52.834Z,13.80
2017-12-31T08:48:19.226Z,13.80
2017-12-31T08:50:45.700Z,13.70
2017-12-31T08:53:12.087Z,13.60
2017-12-31T08:55:41.756Z,13.60
2017-12-31T08:58:08.751Z,13.50
2017-12-31T09:00:35.527Z,13.50
2017-12-31T09:03:01.977Z,13.40
2017-12-31T09:05:28.569Z,13.50
2017-12-31T09:07:55.124Z,13.60
2017-12-31T09:10:29.262Z,13.70
2017-12-31T09:12:56.408Z,13.90
2017-12-31T09:15:23.684Z,13.90
2017-12-31T09:17:50.137Z,13.90
2017-12-31T09:29:22.177Z,13.90
2017-12-31T09:31:48.724Z,13.90
2017-12-31T09:46:18.760Z,14.00
2017-12-31T09:54:47.160Z,14.40
2017-12-31T09:57:13.629Z,14.30
2017-12-31T09:59:40.107Z,14.40
2017-12-31T10:02:07.283Z,14.30
2017-12-31T10:04:33.803Z,14.30
2017-12-31T10:10:00.603Z,14.30
2017-12-31T10:12:27.067Z,14.40
2017-12-31T10:17:53.754Z,14.70
2017-12-31T10:23:20.660Z,14.80
2017-12-31T10:25:47.142Z,14.90
2017-12-31T10:28:14.306Z,15.00
2017-12-31T10:30:40.806Z,15.00
2017-12-31T10:33:07.350Z,14.90
2017-12-31T10:35:33.775Z,14.90
2017-12-31T10:38:01.727Z,14.80
2017-12-31T10:40:28.266Z,14.70
2017-12-31T10:42:55.351Z,14.80
2017-12-31T10:45:21.897Z,14.80
2017-12-31T10:47:48.513Z,14.80
2017-12-31T10:50:16.561Z,14.80
2017-12-31T10:52:43.048Z,14.90
2017-12-31T10:55:09.502Z,14.90
2017-12-31T10:57:35.890Z,14.80
2017-12-31T11:00:02.382Z,14.80
2017-12-31T11:02:29.708Z,14.70
2017-12-31T11:04:56.118Z,14.70
2017-12-31T11:07:23.334Z,14.70
2017-12-31T11:09:50.502Z,14.60
2017-12-31T11:12:16.992Z,14.70
2017-12-31T11:14:43.384Z,14.70
2017-12-31T11:17:10.187Z,14.80
2017-12-31T11:19:37.573Z,14.80
2017-12-31T11:22:04.043Z,14.80
2017-12-31T11:24:30.459Z,14.70
2017-12-31T11:26:56.851Z,14.70
2017-12-31T11:29:23.358Z,14.70
2017-12-31T11:31:50.538Z,14.60
2017-12-31T11:34:16.940Z,14.60
2017-12-31T11:36:43.322Z,14.60
2017-12-31T11:39:09.734Z,14.50
2017-12-31T11:41:36.176Z,14.40
2017-12-31T11:44:02.702Z,14.40
2017-12-31T11:46:29.161Z,14.30
2017-12-31T11:48:57.091Z,14.30
2017-12-31T11:51:23.497Z,14.30
2017-12-31T11:53:50.679Z,14.20
2017-12-31T11:56:17.111Z,14.20
2017-12-31T11:58:43.517Z,14.20
2017-12-31T12:01:10.756Z,14.00
2017-12-31T12:03:37.213Z,14.00
2017-12-31T12:06:03.598Z,14.00
2017-12-31T12:08:30.211Z,14.00
2017-12-31T12:10:56.577Z,14.00
2017-12-31T12:13:22.966Z,14.00
2017-12-31T12:15:49.551Z,14.00
2017-12-31T12:18:16.707Z,13.90
2017-12-31T12:20:43.067Z,13.90
2017-12-31T12:23:09.489Z,13.90
2017-12-31T12:25:36.647Z,13.90
2017-12-31T12:28:03.078Z,13.90
2017-12-31T12:30:29.494Z,13.90
2017-12-31T12:32:56.623Z,13.90
2017-12-31T12:35:23.800Z,13.90
2017-12-31T12:37:50.994Z,14.00
2017-12-31T12:40:17.400Z,14.00
2017-12-31T12:42:43.993Z,14.00
2017-12-31T12:45:11.151Z,13.90
2017-12-31T12:47:38.597Z,13.90
2017-12-31T12:50:05.794Z,14.00
2017-12-31T12:52:32.973Z,14.00
2017-12-31T12:55:00.123Z,14.10
2017-12-31T12:57:26.542Z,14.10
2017-12-31T12:59:53.003Z,14.00
2017-12-31T13:02:19.541Z,14.10
2017-12-31T13:04:46.705Z,14.20
2017-12-31T13:07:13.895Z,14.20
2017-12-31T13:09:40.467Z,14.30
2017-12-31T13:12:06.878Z,14.20
2017-12-31T13:14:33.336Z,14.30
2017-12-31T13:16:59.761Z,14.30
2017-12-31T13:19:26.916Z,14.40
2017-12-31T13:21:54.874Z,14.40
2017-12-31T13:24:22.046Z,14.40
2017-12-31T13:26:49.265Z,14.30
2017-12-31T13:29:16.720Z,14.30
2017-12-31T13:31:43.195Z,14.40
2017-12-31T13:34:11.108Z,14.40
2017-12-31T13:36:37.551Z,14.40
2017-12-31T13:39:04.023Z,14.50
2017-12-31T13:41:31.215Z,14.50
2017-12-31T13:43:57.662Z,14.50
2017-12-31T13:46:24.070Z,14.50
2017-12-31T13:48:50.503Z,14.40
2017-12-31T13:51:16.950Z,14.50
2017-12-31T13:53:43.362Z,14.40
2017-12-31T13:56:09.794Z,14.50
2017-12-31T13:58:36.194Z,14.40
2017-12-31T14:01:03.384Z,14.50
2017-12-31T14:03:29.773Z,14.50
2017-12-31T14:05:57.045Z,14.50
2017-12-31T14:08:23.437Z,14.50
2017-12-31T14:10:50.805Z,14.40
2017-12-31T14:13:18.249Z,14.30
2017-12-31T14:15:44.678Z,14.30
2017-12-31T14:18:12.651Z,14.30
2017-12-31T14:20:39.221Z,14.30
2017-12-31T14:23:05.625Z,14.30
2017-12-31T14:25:33.557Z,14.20
2017-12-31T14:28:00.215Z,14.20
2017-12-31T14:30:27.437Z,14.30
2017-12-31T14:32:53.809Z,14.30
2017-12-31T14:35:21.050Z,14.30
2017-12-31T14:37:48.451Z,14.30
2017-12-31T14:42:48.713Z,14.30
2017-12-31T14:45:19.353Z,14.20
2017-12-31T14:47:49.562Z,14.10
2017-12-31T14:50:17.957Z,14.00
2017-12-31T14:52:45.455Z,14.10
2017-12-31T14:55:31.736Z,14.00
2017-12-31T14:57:58.446Z,14.00
2017-12-31T15:00:25.916Z,14.10
2017-12-31T15:02:53.171Z,14.00
2017-12-31T15:05:19.704Z,14.00
2017-12-31T15:07:46.074Z,14.00
2017-12-31T15:10:12.580Z,13.90
2017-12-31T15:12:39.256Z,13.80
2017-12-31T15:15:06.690Z,13.70
2017-12-31T15:17:33.154Z,13.70
2017-12-31T15:19:59.549Z,13.80
2017-12-31T15:22:25.947Z,13.70
2017-12-31T15:24:53.183Z,13.60
2017-12-31T15:27:19.578Z,13.60
2017-12-31T15:29:46.035Z,13.60
2017-12-31T15:32:15.246Z,13.50
2017-12-31T15:34:41.706Z,13.40
2017-12-31T15:37:08.840Z,13.60
2017-12-31T15:39:35.302Z,13.60
2017-12-31T15:42:02.520Z,13.80
2017-12-31T15:44:28.892Z,13.70
2017-12-31T15:46:55.334Z,13.80
2017-12-31T15:49:22.395Z,13.80
2017-12-31T15:51:48.805Z,13.80
2017-12-31T15:54:15.315Z,13.70
2017-12-31T15:56:42.039Z,13.60
2017-12-31T15:59:10.693Z,13.50
2017-12-31T16:01:37.884Z,13.20
2017-12-31T16:04:05.091Z,13.40
2017-12-31T16:06:31.502Z,13.40
2017-12-31T16:08:58.628Z,13.30
2017-12-31T16:11:25.069Z,13.20
2017-12-31T16:13:51.518Z,13.00
2017-12-31T16:16:18.058Z,12.80
2017-12-31T16:18:44.446Z,12.80
2017-12-31T16:21:11.708Z,12.90
2017-12-31T16:23:39.178Z,13.00
2017-12-31T16:26:06.295Z,13.20
2017-12-31T16:28:32.731Z,13.20
2017-12-31T16:30:59.902Z,13.40
2017-12-31T16:33:26.295Z,13.40
2017-12-31T16:35:52.721Z,13.40
2017-12-31T16:38:19.258Z,13.50
2017-12-31T16:40:47.144Z,13.50
2017-12-31T16:43:14.765Z,13.40
2017-12-31T16:45:41.194Z,13.50
2017-12-31T16:48:07.643Z,13.50
2017-12-31T16:50:34.038Z,13.60
2017-12-31T16:53:01.349Z,13.50
2017-12-31T16:55:28.490Z,13.50
2017-12-31T16:57:54.851Z,13.50
2017-12-31T17:00:21.348Z,13.50
2017-12-31T17:02:47.719Z,13.50
2017-12-31T17:05:14.117Z,13.50
2017-12-31T17:07:41.294Z,13.50
2017-12-31T17:10:08.006Z,13.50
2017-12-31T17:12:34.529Z,13.50
2017-12-31T17:15:00.999Z,13.60
2017-12-31T17:17:27.440Z,13.40
2017-12-31T17:19:54.714Z,13.30
2017-12-31T17:22:21.949Z,13.20
2017-12-31T17:24:48.424Z,13.20
2017-12-31T17:27:15.594Z,13.20
2017-12-31T17:29:42.744Z,13.10
2017-12-31T17:32:09.304Z,13.10
2017-12-31T17:34:35.819Z,13.20
2017-12-31T17:37:02.299Z,13.30
2017-12-31T17:39:28.675Z,13.20
2017-12-31T17:41:55.844Z,13.00
2017-12-31T17:44:23.027Z,12.90
2017-12-31T17:46:49.467Z,12.90
2017-12-31T17:49:15.866Z,13.00
2017-12-31T17:51:43.044Z,13.10
2017-12-31T17:54:09.494Z,13.10
2017-12-31T17:56:35.893Z,13.10
2017-12-31T17:59:02.373Z,13.10
2017-12-31T18:01:28.763Z,13.20
2017-12-31T18:03:57.451Z,13.20
2017-12-31T18:06:23.947Z,13.20
2017-12-31T18:08:51.071Z,13.20
2017-12-31T18:11:17.463Z,13.20
2017-12-31T18:13:44.025Z,13.30
2017-12-31T18:16:10.584Z,13.40
2017-12-31T18:18:37.883Z,13.20
2017-12-31T18:21:04.334Z,13.20
2017-12-31T18:23:30.889Z,13.00
2017-12-31T18:25:57.310Z,13.00
2017-12-31T18:28:23.730Z,12.90
2017-12-31T18:30:50.218Z,12.90
2017-12-31T18:33:16.715Z,12.80
2017-12-31T18:35:43.875Z,12.70
2017-12-31T18:38:10.998Z,12.80
2017-12-31T18:40:38.217Z,12.80
2017-12-31T18:43:06.207Z,12.80
2017-12-31T18:45:32.597Z,12.80
2017-12-31T18:47:59.723Z,12.50
2017-12-31T18:50:26.949Z,12.50
2017-12-31T18:52:53.347Z,12.50
2017-12-31T18:55:19.780Z,12.40
2017-12-31T18:57:46.206Z,12.40
2017-12-31T19:00:12.624Z,12.40
2017-12-31T19:02:39.839Z,12.30
2017-12-31T19:05:07.114Z,12.30
2017-12-31T19:07:33.619Z,12.30
2017-12-31T19:10:00.025Z,12.10
2017-12-31T19:12:26.472Z,12.20
2017-12-31T19:14:52.933Z,12.20
2017-12-31T19:17:19.339Z,12.40
2017-12-31T19:19:45.749Z,12.60
2017-12-31T19:22:12.149Z,12.70
2017-12-31T19:24:38.626Z,12.70
2017-12-31T19:27:06.612Z,12.60
2017-12-31T19:29:33.747Z,12.70
2017-12-31T19:32:00.238Z,12.70
2017-12-31T19:34:26.718Z,12.80
2017-12-31T19:36:53.227Z,12.70
2017-12-31T19:39:19.629Z,12.90
2017-12-31T19:41:46.073Z,12.90
2017-12-31T19:44:12.659Z,12.90
2017-12-31T19:46:40.543Z,12.80
2017-12-31T19:49:07.787Z,12.80
2017-12-31T19:51:35.019Z,12.90
2017-12-31T19:54:02.235Z,13.00
2017-12-31T19:56:28.803Z,13.00
2017-12-31T19:58:56.026Z,12.80
2017-12-31T20:01:22.471Z,12.80
2017-12-31T20:03:48.926Z,13.00
2017-12-31T20:06:16.066Z,13.10
2017-12-31T20:08:43.316Z,13.00
2017-12-31T20:11:09.949Z,13.00
2017-12-31T20:13:37.525Z,13.00
2017-12-31T20:16:04.028Z,13.00
2017-12-31T20:18:30.477Z,12.90
2017-12-31T20:20:56.844Z,12.80
2017-12-31T20:23:23.343Z,12.90
2017-12-31T20:25:49.822Z,12.90
2017-12-31T20:28:16.229Z,12.80
2017-12-31T20:30:43.378Z,12.70
2017-12-31T20:33:09.848Z,12.70
2017-12-31T20:35:36.260Z,12.70
2017-12-31T20:38:02.756Z,12.70
2017-12-31T20:40:31.372Z,12.60
2017-12-31T20:42:59.014Z,12.60
2017-12-31T20:45:25.566Z,12.50
2017-12-31T20:47:51.993Z,12.50
2017-12-31T20:50:19.118Z,12.40
2017-12-31T20:52:46.291Z,12.30
2017-12-31T20:55:12.767Z,12.30
2017-12-31T20:57:39.893Z,12.40
2017-12-31T21:00:06.311Z,12.50
2017-12-31T21:02:33.519Z,12.70
2017-12-31T21:05:01.415Z,12.70
2017-12-31T21:07:28.545Z,12.60
2017-12-31T21:09:55.609Z,12.60
2017-12-31T21:12:28.019Z,12.50
2017-12-31T21:14:54.919Z,12.40
2017-12-31T21:17:21.365Z,12.30
2017-12-31T21:19:47.873Z,12.20
2017-12-31T21:22:15.415Z,12.30
2017-12-31T21:24:43.395Z,12.30
2017-12-31T21:27:09.923Z,12.20
2017-12-31T21:29:38.813Z,12.20
2017-12-31T21:32:07.403Z,12.20
2017-12-31T21:34:34.013Z,12.20
2017-12-31T21:37:02.589Z,12.10
2017-12-31T21:39:33.182Z,12.00
2017-12-31T21:41:59.607Z,12.10
2017-12-31T21:44:26.055Z,12.10
2017-12-31T21:46:52.511Z,12.00
2017-12-31T21:49:18.943Z,12.20
2017-12-31T21:51:45.406Z,12.30
2017-12-31T21:54:12.615Z,12.40
2017-12-31T21:56:40.222Z,12.40
2017-12-31T21:59:06.760Z,12.40
2017-12-31T22:01:33.938Z,12.60
2017-12-31T22:04:04.083Z,12.50
2017-12-31T22:06:32.490Z,12.50
2017-12-31T22:09:25.356Z,12.50
2017-12-31T22:11:52.666Z,12.50
2017-12-31T22:14:19.573Z,12.30
2017-12-31T22:16:46.022Z,12.30
2017-12-31T22:19:12.544Z,12.40
2017-12-31T22:21:39.008Z,12.50
2017-12-31T22:24:06.491Z,12.40
2017-12-31T22:26:32.979Z,12.50
2017-12-31T22:28:59.403Z,12.50
2017-12-31T22:31:25.799Z,12.50
2017-12-31T22:33:53.243Z,12.50
2017-12-31T22:36:20.947Z,12.50
2017-12-31T22:38:47.747Z,12.60
2017-12-31T22:41:16.684Z,12.70
2017-12-31T22:43:43.684Z,12.70
2017-12-31T22:46:11.157Z,12.70
2017-12-31T22:48:37.870Z,12.70
2017-12-31T22:51:04.548Z,12.70
2017-12-31T22:53:30.989Z,12.60
2017-12-31T22:55:58.175Z,12.50
2017-12-31T22:58:24.614Z,12.60
2017-12-31T23:00:51.053Z,12.60
2017-12-31T23:03:17.544Z,12.50
2017-12-31T23:05:44.087Z,12.50
2017-12-31T23:08:10.487Z,12.40
2017-12-31T23:10:36.931Z,12.40
2017-12-31T23:13:04.094Z,12.40
2017-12-31T23:15:30.542Z,12.40
2017-12-31T23:17:56.962Z,12.40
2017-12-31T23:20:23.498Z,12.40
2017-12-31T23:22:50.963Z,12.50
2017-12-31T23:25:17.984Z,12.50
2017-12-31T23:27:44.570Z,12.50
2017-12-31T23:30:12.488Z,12.50
2017-12-31T23:32:39.633Z,12.50
2017-12-31T23:35:06.048Z,12.60
2017-12-31T23:37:33.371Z,12.50
2017-12-31T23:40:00.669Z,12.60
2017-12-31T23:42:27.112Z,12.60
2017-12-31T23:44:53.617Z,12.50
2017-12-31T23:47:20.616Z,12.50
2017-12-31T23:49:47.019Z,12.40
2017-12-31T23:52:14.043Z,12.50
2017-12-31T23:54:40.554Z,12.50
2017-12-31T23:57:06.978Z,12.40
2017-12-31T23:59:33.386Z,12.40
